KGXY Airport (Greeley-Weld County) Information

FAA: GXY - ICAO: KGXY

KGXY Airport Location

State Colorado
County Weld
City Greeley
KGXY Airport is 3 miles east of Greeley, CO.
Latitude 40-26-14.7000N
Longitude 104-37-59.6000W
Elevation 4,696ft

KGXY Airport METARs

METAR KGXY 060556Z 08012KT 10SM OVC110 21/16 A3008 RMK AO2 SLP131 60000 T02110156 10272 20211 51017 $
Altimeter 30.08"
Temperature 21.1°C (70.0°F)
Wind 80° at 12KT
Clouds overcast at 11,000ft
Visibility 10.0mi
Time observed: 2022-07-06T05:56:00Z

KGXY Airport Details

Status Operational
Activation October 1944
Ownership Public
Usage Public
Chart CHEYENNE
ATC on-site No
Beacon schedule sunset-sunrise
Beacon color clear green

KGXY Airport Contacts

Owner GREELEY-WELD CO ARPT AUTH
Owner address PO BOX 727, GREELEY, CO 80632
Owner phone 970-336-3000
Manager KATHY SHOEMAKER
Manager address 2635 NORTH 7TH STREET, GRAND JUNCTION, CO 81501
Manager phone 970-298-2273

KGXY Airport (Greeley-Weld County) Radio Frequencies

KGXY (Airport) Radio Frequencies

UNICOM 122.8
Common traffic advisory frequency (CTAF) 122.8